createdAt,value
2023-03-11T00:00:18.679Z,1.80
2023-03-11T00:02:40.260Z,1.67
2023-03-11T00:05:01.321Z,1.50
2023-03-11T00:07:24.065Z,1.63
2023-03-11T00:09:45.498Z,1.80
2023-03-11T00:12:07.256Z,1.93
2023-03-11T00:14:28.484Z,1.70
2023-03-11T00:16:49.638Z,1.60
2023-03-11T00:19:11.340Z,1.63
2023-03-11T00:21:32.535Z,1.70
2023-03-11T00:23:55.073Z,1.83
2023-03-11T00:26:16.527Z,1.60
2023-03-11T00:28:37.794Z,1.70
2023-03-11T00:30:59.136Z,1.70
2023-03-11T00:33:20.560Z,1.87
2023-03-11T00:35:42.287Z,1.50
2023-03-11T00:38:04.672Z,1.60
2023-03-11T00:40:28.505Z,2.00
2023-03-11T00:42:49.547Z,1.60
2023-03-11T00:45:11.131Z,2.00
2023-03-11T00:47:32.113Z,1.73
2023-03-11T00:49:53.378Z,1.60
2023-03-11T00:52:14.845Z,1.87
2023-03-11T00:54:36.010Z,1.80
2023-03-11T00:56:58.567Z,1.67
2023-03-11T00:59:19.801Z,2.00
2023-03-11T01:01:40.992Z,1.80
2023-03-11T01:04:02.353Z,1.80
2023-03-11T01:06:26.100Z,1.97
2023-03-11T01:08:48.919Z,1.77
2023-03-11T01:11:10.247Z,1.87
2023-03-11T01:13:32.983Z,1.77
2023-03-11T01:15:54.108Z,2.00
2023-03-11T01:18:15.632Z,1.90
2023-03-11T01:20:37.042Z,1.70
2023-03-11T01:22:58.254Z,1.63
2023-03-11T01:25:20.527Z,1.90
2023-03-11T01:27:41.903Z,1.83
2023-03-11T01:30:04.869Z,2.00
2023-03-11T01:32:26.147Z,2.10
2023-03-11T01:34:47.435Z,2.10
2023-03-11T01:37:08.783Z,1.90
2023-03-11T01:39:30.037Z,2.10
2023-03-11T01:41:52.965Z,2.03
2023-03-11T01:44:14.318Z,2.40
2023-03-11T01:46:38.820Z,2.07
2023-03-11T01:49:01.068Z,1.87
2023-03-11T01:51:25.719Z,1.87
2023-03-11T01:53:46.976Z,1.93
2023-03-11T01:56:08.572Z,1.90
2023-03-11T01:58:32.029Z,1.93
2023-03-11T02:00:53.554Z,2.13
2023-03-11T02:03:19.508Z,1.73
2023-03-11T02:05:41.059Z,2.00
2023-03-11T02:08:02.941Z,2.10
2023-03-11T02:10:24.200Z,2.00
2023-03-11T02:12:46.391Z,1.70
2023-03-11T02:15:08.286Z,1.80
2023-03-11T02:17:29.411Z,1.83
2023-03-11T02:19:58.407Z,2.10
2023-03-11T02:22:19.523Z,2.20
2023-03-11T02:24:44.742Z,1.87
2023-03-11T02:27:09.027Z,2.17
2023-03-11T02:29:30.530Z,1.97
2023-03-11T02:31:51.998Z,1.97
2023-03-11T02:34:16.931Z,2.30
2023-03-11T02:36:38.683Z,2.13
2023-03-11T02:38:59.672Z,1.97
2023-03-11T02:41:20.911Z,2.13
2023-03-11T02:43:44.612Z,2.10
2023-03-11T02:46:07.499Z,1.87
2023-03-11T02:48:30.030Z,2.33
2023-03-11T02:50:51.322Z,2.20
2023-03-11T02:53:12.356Z,1.67
2023-03-11T02:55:33.999Z,1.80
2023-03-11T02:57:54.971Z,2.10
2023-03-11T03:00:18.480Z,2.00
2023-03-11T03:02:39.753Z,1.80
2023-03-11T03:05:01.078Z,1.90
2023-03-11T03:07:22.332Z,2.00
2023-03-11T03:09:43.545Z,2.27
2023-03-11T03:12:05.119Z,2.10
2023-03-11T03:14:26.381Z,2.03
2023-03-11T03:16:49.290Z,2.20
2023-03-11T03:19:10.526Z,1.90
2023-03-11T03:21:31.929Z,1.60
2023-03-11T03:23:53.272Z,1.80
2023-03-11T03:26:14.951Z,1.97
2023-03-11T03:28:36.245Z,2.00
2023-03-11T03:30:57.644Z,1.80
2023-03-11T03:33:20.545Z,2.47
2023-03-11T03:35:42.119Z,1.90
2023-03-11T03:38:03.328Z,1.93
2023-03-11T03:40:24.561Z,1.87
2023-03-11T03:42:45.771Z,2.07
2023-03-11T03:45:07.839Z,2.00
2023-03-11T03:47:29.147Z,1.93
2023-03-11T03:49:51.786Z,1.97
2023-03-11T03:52:12.865Z,2.00
2023-03-11T03:54:34.305Z,1.90
2023-03-11T03:56:55.552Z,2.00
2023-03-11T03:59:16.910Z,1.93
2023-03-11T04:01:38.401Z,1.83
2023-03-11T04:03:59.752Z,2.20
2023-03-11T04:06:23.243Z,1.93
2023-03-11T04:08:44.858Z,1.53
2023-03-11T04:11:06.018Z,1.97
2023-03-11T04:13:27.431Z,1.90
2023-03-11T04:15:48.913Z,2.10
2023-03-11T04:18:10.163Z,2.20
2023-03-11T04:20:31.525Z,2.13
2023-03-11T04:22:54.171Z,2.30
2023-03-11T04:25:15.343Z,2.20
2023-03-11T04:27:38.408Z,2.07
2023-03-11T04:29:59.404Z,2.13
2023-03-11T04:32:22.553Z,1.93
2023-03-11T04:34:44.116Z,2.00
2023-03-11T04:37:05.562Z,2.03
2023-03-11T04:39:28.401Z,2.30
2023-03-11T04:41:50.146Z,1.80
2023-03-11T04:44:11.189Z,2.17
2023-03-11T04:46:32.626Z,2.10
2023-03-11T04:48:54.074Z,2.20
2023-03-11T04:51:15.413Z,2.07
2023-03-11T04:53:36.759Z,2.00
2023-03-11T04:55:59.372Z,2.10
2023-03-11T04:58:20.712Z,2.13
2023-03-11T05:00:42.026Z,1.90
2023-03-11T05:03:03.324Z,2.07
2023-03-11T05:05:24.952Z,2.10
2023-03-11T05:07:46.088Z,2.23
2023-03-11T05:10:07.983Z,2.20
2023-03-11T05:12:30.690Z,2.00
2023-03-11T05:14:51.844Z,2.00
2023-03-11T05:17:14.913Z,1.90
2023-03-11T05:19:35.869Z,2.07
2023-03-11T05:21:57.119Z,2.60
2023-03-11T05:24:18.322Z,2.20
2023-03-11T05:26:39.489Z,2.10
2023-03-11T05:29:02.179Z,2.00
2023-03-11T05:31:23.534Z,2.10
2023-03-11T05:33:44.881Z,2.17
2023-03-11T05:36:07.090Z,2.03
2023-03-11T05:38:28.412Z,2.00
2023-03-11T05:40:49.843Z,2.13
2023-03-11T05:43:11.264Z,2.30
2023-03-11T05:45:34.027Z,2.23
2023-03-11T05:47:55.160Z,2.23
2023-03-11T05:50:16.406Z,2.40
2023-03-11T05:52:37.770Z,2.30
2023-03-11T05:54:59.309Z,2.10
2023-03-11T05:57:20.913Z,2.27
2023-03-11T05:59:41.936Z,2.30
2023-03-11T06:02:04.872Z,2.10
2023-03-11T06:04:26.295Z,2.10
2023-03-11T06:06:47.757Z,2.00
2023-03-11T06:09:09.072Z,2.20
2023-03-11T06:11:30.399Z,2.20
2023-03-11T06:13:53.347Z,2.33
2023-03-11T06:16:14.649Z,2.57
2023-03-11T06:18:37.453Z,2.10
2023-03-11T06:20:59.486Z,2.33
2023-03-11T06:23:21.236Z,2.50
2023-03-11T06:25:42.483Z,2.53
2023-03-11T06:28:04.289Z,2.63
2023-03-11T06:30:26.093Z,2.33
2023-03-11T06:32:47.682Z,2.30
2023-03-11T06:35:10.639Z,2.23
2023-03-11T06:37:31.760Z,2.43
2023-03-11T06:39:53.276Z,2.23
2023-03-11T06:42:14.548Z,2.20
2023-03-11T06:44:35.798Z,1.97
2023-03-11T06:46:57.019Z,2.47
2023-03-11T06:49:18.415Z,2.50
2023-03-11T06:51:41.413Z,2.27
2023-03-11T06:54:02.489Z,2.80
2023-03-11T06:56:24.351Z,2.23
2023-03-11T06:58:45.831Z,2.57
2023-03-11T07:01:08.308Z,4.17
2023-03-11T07:03:29.454Z,3.40
2023-03-11T07:05:51.610Z,3.23
2023-03-11T07:08:14.000Z,2.70
2023-03-11T07:10:35.687Z,2.83
2023-03-11T07:12:56.913Z,2.63
2023-03-11T07:15:18.183Z,2.70
2023-03-11T07:17:39.590Z,2.50
2023-03-11T07:20:00.972Z,2.80
2023-03-11T07:22:22.381Z,2.50
2023-03-11T07:24:47.440Z,2.93
2023-03-11T07:27:08.611Z,2.73
2023-03-11T07:29:30.004Z,2.80
2023-03-11T07:31:51.583Z,2.93
2023-03-11T07:34:13.314Z,3.13
2023-03-11T07:36:34.801Z,3.00
2023-03-11T07:38:56.709Z,3.13
2023-03-11T07:41:19.019Z,2.80
2023-03-11T07:43:40.795Z,3.00
2023-03-11T07:46:06.397Z,2.87
2023-03-11T07:48:27.690Z,3.03
2023-03-11T07:50:49.125Z,2.43
2023-03-11T07:53:10.478Z,2.03
2023-03-11T07:55:31.802Z,2.70
2023-03-11T07:57:54.451Z,2.27
2023-03-11T08:00:16.626Z,2.73
2023-03-11T08:02:37.678Z,2.30
2023-03-11T08:04:58.661Z,2.10
2023-03-11T08:07:20.843Z,3.20
2023-03-11T08:09:41.931Z,2.40
2023-03-11T08:12:03.101Z,2.60
2023-03-11T08:14:25.656Z,2.57
2023-03-11T08:16:47.025Z,2.57
2023-03-11T08:19:08.288Z,2.37
2023-03-11T08:21:32.000Z,2.37
2023-03-11T08:23:53.964Z,2.40
2023-03-11T08:26:16.132Z,2.17
2023-03-11T08:28:37.926Z,3.70
2023-03-11T08:31:01.086Z,4.47
2023-03-11T08:33:22.546Z,2.43
2023-03-11T08:35:43.996Z,3.37
2023-03-11T08:38:05.849Z,2.33
2023-03-11T08:40:27.234Z,2.23
2023-03-11T08:42:48.344Z,7.63
2023-03-11T08:45:10.206Z,2.53
2023-03-11T08:47:34.579Z,2.10
2023-03-11T08:49:55.620Z,2.10
2023-03-11T08:52:17.031Z,2.30
2023-03-11T08:54:38.400Z,2.00
2023-03-11T08:57:02.846Z,2.00
2023-03-11T08:59:24.159Z,2.00
2023-03-11T09:01:46.788Z,1.97
2023-03-11T09:04:09.127Z,2.07
2023-03-11T09:06:30.851Z,2.10
2023-03-11T09:08:52.298Z,36.30
2023-03-11T09:11:13.795Z,7.67
2023-03-11T09:13:35.419Z,12.73
2023-03-11T09:15:56.858Z,6.90
2023-03-11T09:18:18.222Z,2.40
2023-03-11T09:20:40.762Z,2.10
2023-03-11T09:23:02.019Z,2.10
2023-03-11T09:25:23.407Z,2.10
2023-03-11T09:27:44.704Z,2.10
2023-03-11T09:30:06.429Z,1.90
2023-03-11T09:32:27.927Z,2.10
2023-03-11T09:34:49.143Z,1.97
2023-03-11T09:37:11.774Z,1.90
2023-03-11T09:39:33.177Z,1.60
2023-03-11T09:41:58.921Z,1.97
2023-03-11T09:44:24.738Z,2.00
2023-03-11T09:46:53.120Z,1.83
2023-03-11T09:49:17.585Z,2.00
2023-03-11T09:51:41.042Z,2.07
2023-03-11T09:54:04.743Z,1.90
2023-03-11T09:56:26.737Z,2.90
2023-03-11T09:58:48.583Z,3.50
2023-03-11T10:01:13.820Z,1.93
2023-03-11T10:03:38.642Z,8.13
2023-03-11T10:06:07.345Z,4.30
2023-03-11T10:08:30.338Z,2.40
2023-03-11T10:10:55.844Z,2.03
2023-03-11T10:13:20.002Z,3.80
2023-03-11T10:15:48.330Z,1.97
2023-03-11T10:18:18.507Z,1.80
2023-03-11T10:20:43.545Z,1.77
2023-03-11T10:23:11.885Z,1.50
2023-03-11T10:25:35.158Z,1.70
2023-03-11T10:28:01.006Z,1.77
2023-03-11T10:30:26.045Z,1.57
2023-03-11T10:32:49.121Z,1.80
2023-03-11T10:35:17.437Z,1.70
2023-03-11T10:37:49.394Z,1.77
2023-03-11T10:40:16.521Z,1.77
2023-03-11T10:42:38.506Z,1.93
2023-03-11T10:45:01.367Z,2.07
2023-03-11T10:47:23.557Z,2.00
2023-03-11T10:49:44.810Z,2.67
2023-03-11T10:52:06.606Z,2.20
2023-03-11T10:54:30.217Z,2.97
2023-03-11T10:56:54.773Z,1.80
2023-03-11T10:59:23.919Z,1.90
2023-03-11T11:01:54.477Z,1.60
2023-03-11T11:04:26.564Z,1.60
2023-03-11T11:06:47.859Z,1.40
2023-03-11T11:09:15.802Z,1.50
2023-03-11T11:11:39.518Z,1.20
2023-03-11T11:14:01.237Z,1.47
2023-03-11T11:16:22.340Z,1.30
2023-03-11T11:18:49.114Z,1.40
2023-03-11T11:21:14.613Z,1.30
2023-03-11T11:23:38.561Z,1.10
2023-03-11T11:26:00.298Z,1.33
2023-03-11T11:28:22.108Z,1.20
2023-03-11T11:30:53.483Z,2.30
2023-03-11T11:33:22.622Z,1.60
2023-03-11T11:35:50.830Z,1.40
2023-03-11T11:38:11.929Z,1.73
2023-03-11T11:40:34.008Z,1.23
2023-03-11T11:42:57.152Z,1.30
2023-03-11T11:45:23.340Z,1.30
2023-03-11T11:47:46.047Z,1.20
2023-03-11T11:50:13.703Z,1.73
2023-03-11T11:52:38.195Z,1.40
2023-03-11T11:55:01.743Z,1.60
2023-03-11T11:57:23.646Z,1.50
2023-03-11T11:59:45.171Z,1.50
2023-03-11T12:02:12.671Z,1.30
2023-03-11T12:04:54.782Z,1.53
2023-03-11T12:07:20.917Z,1.70
2023-03-11T12:09:48.683Z,1.30
2023-03-11T12:12:13.735Z,1.30
2023-03-11T12:14:37.953Z,1.40
2023-03-11T12:17:00.601Z,1.70
2023-03-11T12:19:27.438Z,1.50
2023-03-11T12:22:06.491Z,1.53
2023-03-11T12:24:40.915Z,1.40
2023-03-11T12:27:04.744Z,1.50
2023-03-11T12:29:27.386Z,1.40
2023-03-11T12:31:48.600Z,1.30
2023-03-11T12:34:12.372Z,1.60
2023-03-11T12:36:34.299Z,1.70
2023-03-11T12:38:55.879Z,1.60
2023-03-11T12:41:28.356Z,1.40
2023-03-11T12:44:10.662Z,1.67
2023-03-11T12:46:50.356Z,1.57
2023-03-11T12:49:14.067Z,1.70
2023-03-11T12:51:39.244Z,1.50
2023-03-11T12:54:20.695Z,1.40
2023-03-11T12:56:44.620Z,1.40
2023-03-11T12:59:14.764Z,1.67
2023-03-11T13:01:42.661Z,1.30
2023-03-11T13:04:13.242Z,1.33
2023-03-11T13:06:48.913Z,1.40
2023-03-11T13:09:16.011Z,1.40
2023-03-11T13:11:42.592Z,1.30
2023-03-11T13:14:11.948Z,1.20
2023-03-11T13:16:38.337Z,1.20
2023-03-11T13:19:19.413Z,1.30
2023-03-11T13:21:42.106Z,1.40
2023-03-11T13:24:18.195Z,1.60
2023-03-11T13:26:41.666Z,1.67
2023-03-11T13:29:11.759Z,1.70
2023-03-11T13:31:40.190Z,1.70
2023-03-11T13:34:05.214Z,1.33
2023-03-11T13:36:33.772Z,1.60
2023-03-11T13:39:04.853Z,1.30
2023-03-11T13:41:27.855Z,1.50
2023-03-11T13:43:50.082Z,1.23
2023-03-11T13:46:14.500Z,1.40
2023-03-11T13:48:40.663Z,1.83
2023-03-11T13:51:02.952Z,1.13
2023-03-11T13:53:26.889Z,1.30
2023-03-11T13:55:50.304Z,1.40
2023-03-11T13:58:20.886Z,1.40
2023-03-11T14:00:47.986Z,1.43
2023-03-11T14:03:12.890Z,1.67
2023-03-11T14:05:34.923Z,1.40
2023-03-11T14:07:55.914Z,1.50
2023-03-11T14:10:18.264Z,1.40
2023-03-11T14:12:40.565Z,1.30
2023-03-11T14:15:03.647Z,1.30
2023-03-11T14:17:24.694Z,1.33
2023-03-11T14:20:04.686Z,1.50
2023-03-11T14:22:26.438Z,1.67
2023-03-11T14:24:48.704Z,1.50
2023-03-11T14:27:10.835Z,1.90
2023-03-11T14:29:33.814Z,1.60
2023-03-11T14:31:55.861Z,4.27
2023-03-11T14:34:17.767Z,1.63
2023-03-11T14:36:43.308Z,1.40
2023-03-11T14:39:04.616Z,1.30
2023-03-11T14:41:26.072Z,1.50
2023-03-11T14:43:50.939Z,1.40
2023-03-11T14:46:17.059Z,1.40
2023-03-11T14:48:39.933Z,1.30
2023-03-11T14:51:03.509Z,1.47
2023-03-11T14:53:25.911Z,1.40
2023-03-11T14:55:51.052Z,1.63
2023-03-11T14:58:15.802Z,1.60
2023-03-11T15:00:39.731Z,1.80
2023-03-11T15:03:03.416Z,1.50
2023-03-11T15:05:27.265Z,1.87
2023-03-11T15:07:50.394Z,1.60
2023-03-11T15:10:12.076Z,1.70
2023-03-11T15:12:34.280Z,1.60
2023-03-11T15:14:55.251Z,1.50
2023-03-11T15:17:33.967Z,1.40
2023-03-11T15:19:58.489Z,1.63
2023-03-11T15:22:25.447Z,1.73
2023-03-11T15:24:50.750Z,1.50
2023-03-11T15:27:23.308Z,1.33
2023-03-11T15:29:51.033Z,1.63
2023-03-11T15:32:26.551Z,1.50
2023-03-11T15:34:59.974Z,1.70
2023-03-11T15:37:22.786Z,1.40
2023-03-11T15:39:45.215Z,1.70
2023-03-11T15:42:13.584Z,1.57
2023-03-11T15:44:37.257Z,1.90
2023-03-11T15:46:59.666Z,1.63
2023-03-11T15:49:20.826Z,1.87
2023-03-11T15:51:42.009Z,1.70
2023-03-11T15:54:04.653Z,1.90
2023-03-11T15:56:26.396Z,1.73
2023-03-11T15:58:47.677Z,1.93
2023-03-11T16:01:10.642Z,1.90
2023-03-11T16:03:32.280Z,2.40
2023-03-11T16:05:53.568Z,1.93
2023-03-11T16:08:15.251Z,2.17
2023-03-11T16:10:38.008Z,2.00
2023-03-11T16:12:59.019Z,2.30
2023-03-11T16:15:24.751Z,2.20
2023-03-11T16:17:49.593Z,2.50
2023-03-11T16:20:11.688Z,2.20
2023-03-11T16:22:35.454Z,2.10
2023-03-11T16:24:56.783Z,2.73
2023-03-11T16:27:19.514Z,4.37
2023-03-11T16:29:40.965Z,3.30
2023-03-11T16:32:02.033Z,3.23
2023-03-11T16:34:23.297Z,3.07
2023-03-11T16:36:44.510Z,2.70
2023-03-11T16:39:05.857Z,2.50
2023-03-11T16:41:27.612Z,2.50
2023-03-11T16:43:50.426Z,2.50
2023-03-11T16:46:11.531Z,2.37
2023-03-11T16:48:32.766Z,2.63
2023-03-11T16:50:54.159Z,2.60
2023-03-11T16:53:16.147Z,2.47
2023-03-11T16:55:37.290Z,2.80
2023-03-11T16:57:59.347Z,2.00
2023-03-11T17:00:22.366Z,2.40
2023-03-11T17:02:43.591Z,2.60
2023-03-11T17:05:05.765Z,2.60
2023-03-11T17:07:27.015Z,2.60
2023-03-11T17:09:48.050Z,2.33
2023-03-11T17:12:12.103Z,2.77
2023-03-11T17:14:33.916Z,2.70
2023-03-11T17:16:56.717Z,2.03
2023-03-11T17:19:17.734Z,2.53
2023-03-11T17:21:39.085Z,2.30
2023-03-11T17:24:00.514Z,2.17
2023-03-11T17:26:22.616Z,2.50
2023-03-11T17:28:44.475Z,2.30
2023-03-11T17:31:07.220Z,2.80
2023-03-11T17:33:29.756Z,2.53
2023-03-11T17:35:50.805Z,3.40
2023-03-11T17:38:11.982Z,2.90
2023-03-11T17:40:33.185Z,3.10
2023-03-11T17:42:54.473Z,2.63
2023-03-11T17:45:15.765Z,2.80
2023-03-11T17:47:37.157Z,2.87
2023-03-11T17:50:00.183Z,2.60
2023-03-11T17:52:21.358Z,2.83
2023-03-11T17:54:42.771Z,2.50
2023-03-11T17:57:04.127Z,2.27
2023-03-11T17:59:25.710Z,2.27
2023-03-11T18:01:47.262Z,2.27
2023-03-11T18:04:08.372Z,2.80
2023-03-11T18:06:31.312Z,2.20
2023-03-11T18:08:53.194Z,2.30
2023-03-11T18:11:17.566Z,2.40
2023-03-11T18:13:40.596Z,2.37
2023-03-11T18:16:02.507Z,2.57
2023-03-11T18:18:23.641Z,2.40
2023-03-11T18:20:45.063Z,2.50
2023-03-11T18:23:07.792Z,2.53
2023-03-11T18:25:29.064Z,2.57
2023-03-11T18:27:50.562Z,2.27
2023-03-11T18:30:13.135Z,2.40
2023-03-11T18:32:34.103Z,2.30
2023-03-11T18:34:55.373Z,2.67
2023-03-11T18:37:16.716Z,2.57
2023-03-11T18:39:39.402Z,2.47
2023-03-11T18:42:03.129Z,2.50
2023-03-11T18:44:24.621Z,2.30
2023-03-11T18:46:45.992Z,2.77
2023-03-11T18:49:07.344Z,2.50
2023-03-11T18:51:29.756Z,2.60
2023-03-11T18:53:51.027Z,2.27
2023-03-11T18:56:15.040Z,2.20
2023-03-11T18:58:36.220Z,2.87
2023-03-11T19:01:04.202Z,2.70
2023-03-11T19:03:25.282Z,2.97
2023-03-11T19:05:49.609Z,2.33
2023-03-11T19:08:11.722Z,2.50
2023-03-11T19:10:33.122Z,2.90
2023-03-11T19:12:55.917Z,3.50
2023-03-11T19:15:17.478Z,2.90
2023-03-11T19:17:38.629Z,3.37
2023-03-11T19:19:59.862Z,3.20
2023-03-11T19:22:21.251Z,3.50
2023-03-11T19:24:42.855Z,3.20
2023-03-11T19:27:03.892Z,3.53
2023-03-11T19:29:27.043Z,4.53
2023-03-11T19:31:48.201Z,7.03
2023-03-11T19:34:09.585Z,6.00
2023-03-11T19:36:31.075Z,6.13
2023-03-11T19:38:52.703Z,6.23
2023-03-11T19:41:15.731Z,5.90
2023-03-11T19:43:37.165Z,4.63
2023-03-11T19:45:59.693Z,4.40
2023-03-11T19:48:21.032Z,4.00
2023-03-11T19:50:42.135Z,4.13
2023-03-11T19:53:03.661Z,4.17
2023-03-11T19:55:24.657Z,4.80
2023-03-11T19:57:45.919Z,4.10
2023-03-11T20:00:08.009Z,3.57
2023-03-11T20:02:31.023Z,3.27
2023-03-11T20:04:52.573Z,3.60
2023-03-11T20:07:13.913Z,3.83
2023-03-11T20:09:35.762Z,4.37
2023-03-11T20:11:57.217Z,4.63
2023-03-11T20:14:18.776Z,4.37
2023-03-11T20:16:40.216Z,4.23
2023-03-11T20:19:02.809Z,3.67
2023-03-11T20:21:24.040Z,4.67
2023-03-11T20:23:49.694Z,4.40
2023-03-11T20:26:11.842Z,4.23
2023-03-11T20:28:33.321Z,3.80
2023-03-11T20:30:55.409Z,3.33
2023-03-11T20:33:16.854Z,3.93
2023-03-11T20:35:41.179Z,3.97
2023-03-11T20:38:03.050Z,3.90
2023-03-11T20:40:24.177Z,3.90
2023-03-11T20:42:47.256Z,4.73
2023-03-11T20:45:09.259Z,4.43
2023-03-11T20:47:30.604Z,4.17
2023-03-11T20:49:51.981Z,4.50
2023-03-11T20:52:14.771Z,4.70
2023-03-11T20:54:36.034Z,5.33
2023-03-11T20:56:57.501Z,5.20
2023-03-11T20:59:18.570Z,5.27
2023-03-11T21:01:39.995Z,5.13
2023-03-11T21:04:02.604Z,6.23
2023-03-11T21:06:25.625Z,7.40
2023-03-11T21:08:48.903Z,10.90
2023-03-11T21:11:09.937Z,9.97
2023-03-11T21:13:32.452Z,10.50
2023-03-11T21:15:55.034Z,9.70
2023-03-11T21:18:16.535Z,8.83
2023-03-11T21:20:37.997Z,9.03
2023-03-11T21:22:59.524Z,8.20
2023-03-11T21:25:22.484Z,6.47
2023-03-11T21:27:44.194Z,6.40
2023-03-11T21:30:06.120Z,5.67
2023-03-11T21:32:28.317Z,6.70
2023-03-11T21:34:49.680Z,6.70
2023-03-11T21:37:11.076Z,6.73
2023-03-11T21:39:32.512Z,6.50
2023-03-11T21:41:56.895Z,7.40
2023-03-11T21:44:18.105Z,7.33
2023-03-11T21:46:39.348Z,7.77
2023-03-11T21:49:01.099Z,7.90
2023-03-11T21:51:22.748Z,7.80
2023-03-11T21:53:44.052Z,8.07
2023-03-11T21:56:05.852Z,7.83
2023-03-11T21:58:28.644Z,6.80
2023-03-11T22:00:50.148Z,6.77
2023-03-11T22:03:11.624Z,7.00
2023-03-11T22:05:32.888Z,7.20
2023-03-11T22:07:54.006Z,6.67
2023-03-11T22:10:15.746Z,6.87
2023-03-11T22:12:37.527Z,6.37
2023-03-11T22:15:00.266Z,6.40
2023-03-11T22:17:21.513Z,6.27
2023-03-11T22:19:42.812Z,5.83
2023-03-11T22:22:04.047Z,6.47
2023-03-11T22:24:25.283Z,5.77
2023-03-11T22:26:46.534Z,6.20
2023-03-11T22:29:09.020Z,6.60
2023-03-11T22:31:31.869Z,6.07
2023-03-11T22:33:53.103Z,6.90
2023-03-11T22:36:14.664Z,6.67
2023-03-11T22:38:36.905Z,6.93
2023-03-11T22:41:00.227Z,6.33
2023-03-11T22:43:21.886Z,7.13
2023-03-11T22:45:43.049Z,6.33
2023-03-11T22:48:05.912Z,7.10
2023-03-11T22:50:27.021Z,6.87
2023-03-11T22:52:48.426Z,7.30
2023-03-11T22:55:10.205Z,6.97
2023-03-11T22:57:38.511Z,7.43
2023-03-11T22:59:59.631Z,7.27
2023-03-11T23:02:21.052Z,7.90
2023-03-11T23:04:46.515Z,8.07
2023-03-11T23:07:08.180Z,9.00
2023-03-11T23:09:29.446Z,7.63
2023-03-11T23:11:51.252Z,8.53
2023-03-11T23:14:12.643Z,8.10
2023-03-11T23:16:34.121Z,7.93
2023-03-11T23:18:56.536Z,8.33
2023-03-11T23:21:22.553Z,8.17
2023-03-11T23:23:43.885Z,8.53
2023-03-11T23:26:08.603Z,8.50
2023-03-11T23:28:29.755Z,8.47
2023-03-11T23:30:51.240Z,8.57
2023-03-11T23:33:12.625Z,8.27
2023-03-11T23:35:33.895Z,8.20
2023-03-11T23:37:57.232Z,8.90
2023-03-11T23:40:18.852Z,8.40
2023-03-11T23:42:39.984Z,8.47
2023-03-11T23:45:01.352Z,8.97
2023-03-11T23:47:22.659Z,9.07
2023-03-11T23:49:44.168Z,9.00
2023-03-11T23:52:06.289Z,8.43
2023-03-11T23:54:29.229Z,8.70
2023-03-11T23:56:50.983Z,8.70
2023-03-11T23:59:12.600Z,9.00
